sensor_id;sensor_type;location;lat;lon;timestamp;pressure;altitude;pressure_sealevel;temperature;humidity
53522;BME280;39398;48.382;9.802;2023-02-17T00:03:23;94658.66;;;7.99;72.53
53522;BME280;39398;48.382;9.802;2023-02-17T00:08:26;94646.75;;;7.86;71.48
53522;BME280;39398;48.382;9.802;2023-02-17T00:13:27;94645.44;;;7.82;71.32
53522;BME280;39398;48.382;9.802;2023-02-17T00:18:29;94647.09;;;7.83;70.59
53522;BME280;39398;48.382;9.802;2023-02-17T00:23:32;94653.03;;;7.93;70.94
53522;BME280;39398;48.382;9.802;2023-02-17T00:28:33;94652.09;;;7.68;71.69
53522;BME280;39398;48.382;9.802;2023-02-17T00:33:35;94649.44;;;7.68;71.93
53522;BME280;39398;48.382;9.802;2023-02-17T00:38:39;94644.31;;;7.59;71.89
53522;BME280;39398;48.382;9.802;2023-02-17T00:43:40;94646.63;;;7.62;72.73
53522;BME280;39398;48.382;9.802;2023-02-17T00:48:42;94631.34;;;7.57;71.91
53522;BME280;39398;48.382;9.802;2023-02-17T00:53:45;94643.19;;;7.61;71.81
53522;BME280;39398;48.382;9.802;2023-02-17T00:58:47;94642.56;;;7.67;72.28
53522;BME280;39398;48.382;9.802;2023-02-17T01:03:49;94653.50;;;7.55;72.76
53522;BME280;39398;48.382;9.802;2023-02-17T01:08:52;94652.97;;;7.51;71.85
53522;BME280;39398;48.382;9.802;2023-02-17T01:13:55;94664.88;;;7.63;72.74
53522;BME280;39398;48.382;9.802;2023-02-17T01:18:56;94656.06;;;7.73;72.03
53522;BME280;39398;48.382;9.802;2023-02-17T01:24:01;94651.56;;;7.65;72.85
53522;BME280;39398;48.382;9.802;2023-02-17T01:29:04;94648.94;;;7.65;72.83
53522;BME280;39398;48.382;9.802;2023-02-17T01:34:06;94647.13;;;7.65;73.08
53522;BME280;39398;48.382;9.802;2023-02-17T01:39:12;94641.06;;;7.65;72.94
53522;BME280;39398;48.382;9.802;2023-02-17T01:44:16;94645.97;;;7.60;73.48
53522;BME280;39398;48.382;9.802;2023-02-17T01:49:26;94631.16;;;7.51;73.66
53522;BME280;39398;48.382;9.802;2023-02-17T01:54:34;94616.50;;;7.48;74.50
53522;BME280;39398;48.382;9.802;2023-02-17T01:59:36;94614.69;;;7.49;74.71
53522;BME280;39398;48.382;9.802;2023-02-17T02:04:40;94620.06;;;7.39;74.30
53522;BME280;39398;48.382;9.802;2023-02-17T02:09:47;94611.50;;;7.37;74.26
53522;BME280;39398;48.382;9.802;2023-02-17T02:14:51;94604.97;;;7.41;73.93
53522;BME280;39398;48.382;9.802;2023-02-17T02:20:32;94595.91;;;7.35;74.06
53522;BME280;39398;48.382;9.802;2023-02-17T02:26:01;94598.91;;;7.40;73.87
53522;BME280;39398;48.382;9.802;2023-02-17T02:31:10;94597.00;;;7.25;74.69
53522;BME280;39398;48.382;9.802;2023-02-17T02:36:20;94594.06;;;7.28;74.55
53522;BME280;39398;48.382;9.802;2023-02-17T02:41:26;94580.47;;;7.32;75.08
53522;BME280;39398;48.382;9.802;2023-02-17T02:46:30;94577.78;;;7.24;75.61
53522;BME280;39398;48.382;9.802;2023-02-17T02:51:42;94580.66;;;7.13;74.95
53522;BME280;39398;48.382;9.802;2023-02-17T02:56:55;94565.72;;;7.13;75.79
53522;BME280;39398;48.382;9.802;2023-02-17T03:02:05;94565.50;;;7.25;74.67
53522;BME280;39398;48.382;9.802;2023-02-17T03:07:16;94562.13;;;7.14;75.48
53522;BME280;39398;48.382;9.802;2023-02-17T03:12:20;94554.31;;;7.22;75.11
53522;BME280;39398;48.382;9.802;2023-02-17T03:17:22;94556.22;;;7.12;74.91
53522;BME280;39398;48.382;9.802;2023-02-17T03:22:29;94559.47;;;7.06;76.52
53522;BME280;39398;48.382;9.802;2023-02-17T03:27:32;94550.81;;;6.88;75.48
53522;BME280;39398;48.382;9.802;2023-02-17T03:32:34;94558.00;;;6.86;75.30
53522;BME280;39398;48.382;9.802;2023-02-17T03:37:37;94548.44;;;7.03;74.77
53522;BME280;39398;48.382;9.802;2023-02-17T03:42:38;94546.47;;;7.05;75.19
53522;BME280;39398;48.382;9.802;2023-02-17T03:47:40;94555.81;;;6.99;75.57
53522;BME280;39398;48.382;9.802;2023-02-17T03:52:43;94556.13;;;6.96;76.27
53522;BME280;39398;48.382;9.802;2023-02-17T03:57:45;94547.19;;;6.89;77.18
53522;BME280;39398;48.382;9.802;2023-02-17T04:02:47;94552.13;;;6.92;76.36
53522;BME280;39398;48.382;9.802;2023-02-17T04:07:50;94542.78;;;6.89;76.04
53522;BME280;39398;48.382;9.802;2023-02-17T04:12:51;94537.78;;;7.04;75.60
53522;BME280;39398;48.382;9.802;2023-02-17T04:17:53;94533.53;;;7.03;75.86
53522;BME280;39398;48.382;9.802;2023-02-17T04:22:56;94537.69;;;6.88;76.07
53522;BME280;39398;48.382;9.802;2023-02-17T04:27:57;94530.31;;;6.91;76.64
53522;BME280;39398;48.382;9.802;2023-02-17T04:32:59;94536.56;;;6.90;76.54
53522;BME280;39398;48.382;9.802;2023-02-17T04:38:02;94546.75;;;6.93;76.19
53522;BME280;39398;48.382;9.802;2023-02-17T04:43:04;94551.06;;;7.03;76.42
53522;BME280;39398;48.382;9.802;2023-02-17T04:48:06;94544.06;;;7.11;75.78
53522;BME280;39398;48.382;9.802;2023-02-17T04:53:08;94542.16;;;6.95;76.50
53522;BME280;39398;48.382;9.802;2023-02-17T04:58:10;94541.09;;;6.80;77.31
53522;BME280;39398;48.382;9.802;2023-02-17T05:03:12;94553.63;;;6.68;77.29
53522;BME280;39398;48.382;9.802;2023-02-17T05:08:15;94537.13;;;7.02;77.30
53522;BME280;39398;48.382;9.802;2023-02-17T05:13:16;94539.47;;;6.87;78.11
53522;BME280;39398;48.382;9.802;2023-02-17T05:18:18;94534.34;;;6.78;78.95
53522;BME280;39398;48.382;9.802;2023-02-17T05:23:21;94540.47;;;6.86;79.55
53522;BME280;39398;48.382;9.802;2023-02-17T05:28:23;94527.69;;;6.91;79.71
53522;BME280;39398;48.382;9.802;2023-02-17T05:33:25;94537.97;;;6.85;79.80
53522;BME280;39398;48.382;9.802;2023-02-17T05:38:28;94534.53;;;6.84;80.55
53522;BME280;39398;48.382;9.802;2023-02-17T05:43:29;94528.00;;;6.88;80.34
53522;BME280;39398;48.382;9.802;2023-02-17T05:48:32;94533.09;;;6.90;80.82
53522;BME280;39398;48.382;9.802;2023-02-17T05:53:35;94540.78;;;6.83;81.22
53522;BME280;39398;48.382;9.802;2023-02-17T05:58:36;94534.03;;;6.81;81.50
53522;BME280;39398;48.382;9.802;2023-02-17T06:03:38;94533.00;;;6.73;81.84
53522;BME280;39398;48.382;9.802;2023-02-17T06:08:41;94540.09;;;6.81;81.46
53522;BME280;39398;48.382;9.802;2023-02-17T06:13:42;94539.69;;;6.68;82.42
53522;BME280;39398;48.382;9.802;2023-02-17T06:18:44;94547.56;;;6.68;82.44
53522;BME280;39398;48.382;9.802;2023-02-17T06:23:47;94553.78;;;6.49;83.85
53522;BME280;39398;48.382;9.802;2023-02-17T06:28:48;94557.44;;;6.56;83.98
53522;BME280;39398;48.382;9.802;2023-02-17T06:33:50;94556.25;;;6.68;82.82
53522;BME280;39398;48.382;9.802;2023-02-17T06:38:53;94561.91;;;6.82;82.49
53522;BME280;39398;48.382;9.802;2023-02-17T06:43:54;94568.28;;;6.79;82.75
53522;BME280;39398;48.382;9.802;2023-02-17T06:48:56;94579.38;;;6.73;83.44
53522;BME280;39398;48.382;9.802;2023-02-17T06:53:59;94587.22;;;6.65;84.49
53522;BME280;39398;48.382;9.802;2023-02-17T06:59:01;94576.31;;;6.78;84.52
53522;BME280;39398;48.382;9.802;2023-02-17T07:04:02;94577.72;;;6.90;83.75
53522;BME280;39398;48.382;9.802;2023-02-17T07:09:05;94577.31;;;7.03;83.48
53522;BME280;39398;48.382;9.802;2023-02-17T07:14:07;94587.06;;;7.10;83.67
53522;BME280;39398;48.382;9.802;2023-02-17T07:19:08;94581.75;;;7.02;83.89
53522;BME280;39398;48.382;9.802;2023-02-17T07:24:11;94577.88;;;7.14;82.99
53522;BME280;39398;48.382;9.802;2023-02-17T07:29:13;94580.78;;;7.29;83.06
53522;BME280;39398;48.382;9.802;2023-02-17T07:34:15;94587.72;;;7.38;82.66
53522;BME280;39398;48.382;9.802;2023-02-17T07:39:18;94580.31;;;7.68;81.25
53522;BME280;39398;48.382;9.802;2023-02-17T07:44:19;94590.38;;;7.73;81.99
53522;BME280;39398;48.382;9.802;2023-02-17T07:49:21;94591.38;;;7.88;81.90
53522;BME280;39398;48.382;9.802;2023-02-17T07:54:24;94598.13;;;7.82;82.60
53522;BME280;39398;48.382;9.802;2023-02-17T07:59:25;94599.69;;;8.01;82.58
53522;BME280;39398;48.382;9.802;2023-02-17T08:04:27;94595.88;;;7.96;82.31
53522;BME280;39398;48.382;9.802;2023-02-17T08:09:30;94597.69;;;8.03;82.69
53522;BME280;39398;48.382;9.802;2023-02-17T08:14:32;94591.78;;;8.09;82.46
53522;BME280;39398;48.382;9.802;2023-02-17T08:19:34;94592.34;;;8.21;81.96
53522;BME280;39398;48.382;9.802;2023-02-17T08:24:50;94600.56;;;8.26;82.16
53522;BME280;39398;48.382;9.802;2023-02-17T08:29:51;94612.69;;;8.61;81.18
53522;BME280;39398;48.382;9.802;2023-02-17T08:34:56;94614.34;;;8.95;80.59
53522;BME280;39398;48.382;9.802;2023-02-17T08:39:59;94611.22;;;8.92;78.94
53522;BME280;39398;48.382;9.802;2023-02-17T08:45:01;94618.97;;;9.10;79.04
53522;BME280;39398;48.382;9.802;2023-02-17T08:50:04;94626.34;;;9.14;78.74
53522;BME280;39398;48.382;9.802;2023-02-17T08:55:07;94635.41;;;9.20;78.37
53522;BME280;39398;48.382;9.802;2023-02-17T09:00:10;94637.06;;;9.04;77.99
53522;BME280;39398;48.382;9.802;2023-02-17T09:05:12;94628.91;;;9.71;76.59
53522;BME280;39398;48.382;9.802;2023-02-17T09:10:15;94623.19;;;9.43;77.08
53522;BME280;39398;48.382;9.802;2023-02-17T09:15:17;94630.19;;;9.84;76.60
53522;BME280;39398;48.382;9.802;2023-02-17T09:20:19;94633.03;;;9.74;76.99
53522;BME280;39398;48.382;9.802;2023-02-17T09:25:27;94643.88;;;9.79;77.11
53522;BME280;39398;48.382;9.802;2023-02-17T09:30:28;94640.56;;;9.85;78.13
53522;BME280;39398;48.382;9.802;2023-02-17T09:35:31;94635.28;;;9.93;78.64
53522;BME280;39398;48.382;9.802;2023-02-17T09:40:40;94625.00;;;10.07;79.16
53522;BME280;39398;48.382;9.802;2023-02-17T09:45:46;94629.00;;;9.94;79.28
53522;BME280;39398;48.382;9.802;2023-02-17T09:50:53;94619.09;;;9.96;80.56
53522;BME280;39398;48.382;9.802;2023-02-17T09:55:58;94618.97;;;9.90;82.08
53522;BME280;39398;48.382;9.802;2023-02-17T10:01:06;94620.66;;;10.22;81.94
53522;BME280;39398;48.382;9.802;2023-02-17T10:06:12;94623.25;;;10.38;82.72
53522;BME280;39398;48.382;9.802;2023-02-17T10:11:22;94622.00;;;10.49;82.42
53522;BME280;39398;48.382;9.802;2023-02-17T10:16:29;94620.16;;;10.58;82.41
53522;BME280;39398;48.382;9.802;2023-02-17T10:21:36;94628.50;;;10.69;83.18
53522;BME280;39398;48.382;9.802;2023-02-17T10:26:50;94639.19;;;10.76;83.06
53522;BME280;39398;48.382;9.802;2023-02-17T10:32:06;94647.50;;;10.88;85.77
53522;BME280;39398;48.382;9.802;2023-02-17T10:37:19;94634.69;;;10.85;95.06
53522;BME280;39398;48.382;9.802;2023-02-17T10:42:27;94649.69;;;10.84;97.18
53522;BME280;39398;48.382;9.802;2023-02-17T10:47:31;94655.00;;;11.07;96.80
53522;BME280;39398;48.382;9.802;2023-02-17T10:52:36;94647.84;;;10.62;100.00
53522;BME280;39398;48.382;9.802;2023-02-17T10:57:41;94651.97;;;10.87;100.00
53522;BME280;39398;48.382;9.802;2023-02-17T11:02:44;94644.66;;;10.98;100.00
53522;BME280;39398;48.382;9.802;2023-02-17T11:07:47;94638.84;;;11.02;100.00
53522;BME280;39398;48.382;9.802;2023-02-17T11:12:50;94621.59;;;11.29;100.00
53522;BME280;39398;48.382;9.802;2023-02-17T11:17:52;94619.31;;;11.26;100.00
53522;BME280;39398;48.382;9.802;2023-02-17T11:28:21;94633.34;;;11.50;98.90
53522;BME280;39398;48.382;9.802;2023-02-17T11:33:30;94625.56;;;11.48;98.70
53522;BME280;39398;48.382;9.802;2023-02-17T11:38:41;94617.09;;;11.68;97.79
53522;BME280;39398;48.382;9.802;2023-02-17T11:43:52;94618.34;;;11.95;96.15
53522;BME280;39398;48.382;9.802;2023-02-17T11:49:38;94608.78;;;11.94;95.39
53522;BME280;39398;48.382;9.802;2023-02-17T11:54:54;94591.69;;;11.96;94.63
53522;BME280;39398;48.382;9.802;2023-02-17T12:00:11;94599.63;;;12.11;93.46
53522;BME280;39398;48.382;9.802;2023-02-17T12:05:20;94606.31;;;12.07;94.11
53522;BME280;39398;48.382;9.802;2023-02-17T12:10:37;94616.19;;;12.34;92.67
53522;BME280;39398;48.382;9.802;2023-02-17T12:15:51;94604.63;;;12.21;92.30
53522;BME280;39398;48.382;9.802;2023-02-17T12:20:59;94605.72;;;12.41;91.92
53522;BME280;39398;48.382;9.802;2023-02-17T12:26:10;94598.97;;;12.24;92.17
53522;BME280;39398;48.382;9.802;2023-02-17T12:31:27;94595.06;;;12.05;92.50
53522;BME280;39398;48.382;9.802;2023-02-17T12:36:37;94592.50;;;12.63;91.69
53522;BME280;39398;48.382;9.802;2023-02-17T12:41:41;94598.53;;;12.56;90.37
53522;BME280;39398;48.382;9.802;2023-02-17T12:46:49;94598.66;;;12.48;91.01
53522;BME280;39398;48.382;9.802;2023-02-17T12:51:54;94597.94;;;12.40;91.52
53522;BME280;39398;48.382;9.802;2023-02-17T12:57:09;94595.81;;;12.50;91.08
53522;BME280;39398;48.382;9.802;2023-02-17T13:02:17;94600.78;;;12.38;91.78
53522;BME280;39398;48.382;9.802;2023-02-17T13:07:38;94603.63;;;12.22;93.58
53522;BME280;39398;48.382;9.802;2023-02-17T13:12:42;94608.88;;;12.00;97.91
53522;BME280;39398;48.382;9.802;2023-02-17T13:17:53;94610.31;;;11.88;100.00
53522;BME280;39398;48.382;9.802;2023-02-17T13:23:04;94606.75;;;12.10;100.00
53522;BME280;39398;48.382;9.802;2023-02-17T13:33:45;94603.72;;;12.28;100.00
53522;BME280;39398;48.382;9.802;2023-02-17T13:38:58;94609.19;;;12.27;100.00
53522;BME280;39398;48.382;9.802;2023-02-17T13:44:22;94604.28;;;12.09;100.00
53522;BME280;39398;48.382;9.802;2023-02-17T13:49:29;94607.56;;;11.81;100.00
53522;BME280;39398;48.382;9.802;2023-02-17T13:54:31;94603.03;;;11.90;100.00
53522;BME280;39398;48.382;9.802;2023-02-17T13:59:32;94592.28;;;12.28;100.00
53522;BME280;39398;48.382;9.802;2023-02-17T14:04:38;94593.16;;;12.50;100.00
53522;BME280;39398;48.382;9.802;2023-02-17T14:09:40;94587.56;;;12.23;100.00
53522;BME280;39398;48.382;9.802;2023-02-17T14:14:42;94591.63;;;12.41;100.00
53522;BME280;39398;48.382;9.802;2023-02-17T14:19:47;94585.31;;;12.05;100.00
53522;BME280;39398;48.382;9.802;2023-02-17T14:24:57;94584.94;;;12.08;100.00
53522;BME280;39398;48.382;9.802;2023-02-17T14:29:59;94590.34;;;12.51;100.00
53522;BME280;39398;48.382;9.802;2023-02-17T14:35:22;94594.72;;;12.44;100.00
53522;BME280;39398;48.382;9.802;2023-02-17T14:40:24;94597.50;;;12.36;100.00
53522;BME280;39398;48.382;9.802;2023-02-17T14:45:25;94590.75;;;12.33;100.00
53522;BME280;39398;48.382;9.802;2023-02-17T14:50:30;94601.38;;;12.55;99.43
53522;BME280;39398;48.382;9.802;2023-02-17T14:55:34;94599.34;;;12.57;98.56
53522;BME280;39398;48.382;9.802;2023-02-17T15:00:36;94578.94;;;12.51;97.84
53522;BME280;39398;48.382;9.802;2023-02-17T15:05:39;94581.59;;;12.51;97.29
53522;BME280;39398;48.382;9.802;2023-02-17T15:10:42;94578.38;;;12.19;98.24
53522;BME280;39398;48.382;9.802;2023-02-17T15:15:44;94581.47;;;12.44;98.07
53522;BME280;39398;48.382;9.802;2023-02-17T15:20:48;94577.72;;;12.53;96.95
53522;BME280;39398;48.382;9.802;2023-02-17T15:25:50;94569.53;;;12.48;97.51
53522;BME280;39398;48.382;9.802;2023-02-17T15:30:53;94565.69;;;12.72;95.98
53522;BME280;39398;48.382;9.802;2023-02-17T15:35:57;94567.69;;;12.49;97.06
53522;BME280;39398;48.382;9.802;2023-02-17T15:40:59;94557.41;;;12.39;96.58
53522;BME280;39398;48.382;9.802;2023-02-17T15:46:01;94565.06;;;12.49;97.41
53522;BME280;39398;48.382;9.802;2023-02-17T15:51:09;94568.34;;;12.72;96.06
53522;BME280;39398;48.382;9.802;2023-02-17T15:56:13;94568.75;;;12.33;98.84
53522;BME280;39398;48.382;9.802;2023-02-17T16:01:22;94555.00;;;12.23;99.64
53522;BME280;39398;48.382;9.802;2023-02-17T16:06:28;94561.78;;;11.81;100.00
53522;BME280;39398;48.382;9.802;2023-02-17T16:11:29;94566.50;;;12.51;97.02
53522;BME280;39398;48.382;9.802;2023-02-17T16:16:32;94570.00;;;12.37;97.69
53522;BME280;39398;48.382;9.802;2023-02-17T16:21:35;94562.94;;;12.08;98.33
53522;BME280;39398;48.382;9.802;2023-02-17T16:26:37;94557.28;;;12.11;98.54
53522;BME280;39398;48.382;9.802;2023-02-17T16:31:40;94572.63;;;12.01;99.31
53522;BME280;39398;48.382;9.802;2023-02-17T16:36:43;94575.81;;;12.11;98.01
53522;BME280;39398;48.382;9.802;2023-02-17T16:41:45;94582.03;;;12.03;98.64
53522;BME280;39398;48.382;9.802;2023-02-17T16:46:48;94591.16;;;11.71;100.00
53522;BME280;39398;48.382;9.802;2023-02-17T16:51:51;94594.22;;;11.60;100.00
53522;BME280;39398;48.382;9.802;2023-02-17T16:56:53;94596.81;;;11.98;99.45
53522;BME280;39398;48.382;9.802;2023-02-17T17:01:57;94590.16;;;11.87;99.19
53522;BME280;39398;48.382;9.802;2023-02-17T17:07:00;94603.72;;;11.69;100.00
53522;BME280;39398;48.382;9.802;2023-02-17T17:12:01;94605.09;;;11.65;100.00
53522;BME280;39398;48.382;9.802;2023-02-17T17:17:03;94598.25;;;11.56;100.00
53522;BME280;39398;48.382;9.802;2023-02-17T17:22:06;94604.31;;;11.04;100.00
53522;BME280;39398;48.382;9.802;2023-02-17T17:27:09;94602.31;;;11.06;100.00
53522;BME280;39398;48.382;9.802;2023-02-17T17:32:11;94606.94;;;11.27;100.00
53522;BME280;39398;48.382;9.802;2023-02-17T17:37:14;94616.28;;;11.14;100.00
53522;BME280;39398;48.382;9.802;2023-02-17T17:42:15;94617.69;;;11.25;100.00
53522;BME280;39398;48.382;9.802;2023-02-17T17:47:18;94622.75;;;11.12;100.00
53522;BME280;39398;48.382;9.802;2023-02-17T17:52:31;94619.53;;;11.02;100.00
53522;BME280;39398;48.382;9.802;2023-02-17T17:57:33;94619.88;;;10.99;100.00
53522;BME280;39398;48.382;9.802;2023-02-17T18:02:35;94614.72;;;11.05;100.00
53522;BME280;39398;48.382;9.802;2023-02-17T18:07:38;94604.03;;;10.99;100.00
53522;BME280;39398;48.382;9.802;2023-02-17T18:12:42;94592.59;;;10.83;100.00
53522;BME280;39398;48.382;9.802;2023-02-17T18:17:45;94601.63;;;10.89;100.00
53522;BME280;39398;48.382;9.802;2023-02-17T18:22:49;94615.31;;;10.69;100.00
53522;BME280;39398;48.382;9.802;2023-02-17T18:27:50;94625.53;;;10.73;100.00
53522;BME280;39398;48.382;9.802;2023-02-17T18:32:52;94618.66;;;10.63;100.00
53522;BME280;39398;48.382;9.802;2023-02-17T18:37:55;94617.94;;;10.46;100.00
53522;BME280;39398;48.382;9.802;2023-02-17T18:42:57;94607.09;;;10.33;100.00
53522;BME280;39398;48.382;9.802;2023-02-17T18:47:59;94620.81;;;10.29;100.00
53522;BME280;39398;48.382;9.802;2023-02-17T18:53:02;94622.94;;;10.25;100.00
53522;BME280;39398;48.382;9.802;2023-02-17T18:58:05;94643.94;;;10.50;100.00
53522;BME280;39398;48.382;9.802;2023-02-17T19:03:07;94649.94;;;10.43;100.00
53522;BME280;39398;48.382;9.802;2023-02-17T19:08:10;94648.28;;;10.42;100.00
53522;BME280;39398;48.382;9.802;2023-02-17T19:13:11;94651.94;;;10.33;100.00
53522;BME280;39398;48.382;9.802;2023-02-17T19:18:13;94658.34;;;10.47;100.00
53522;BME280;39398;48.382;9.802;2023-02-17T19:23:16;94656.19;;;10.42;100.00
53522;BME280;39398;48.382;9.802;2023-02-17T19:28:17;94652.28;;;10.38;100.00
53522;BME280;39398;48.382;9.802;2023-02-17T19:33:19;94660.31;;;10.45;100.00
53522;BME280;39398;48.382;9.802;2023-02-17T19:38:22;94660.84;;;10.40;100.00
53522;BME280;39398;48.382;9.802;2023-02-17T19:43:23;94670.09;;;10.67;100.00
53522;BME280;39398;48.382;9.802;2023-02-17T19:48:25;94675.38;;;10.36;100.00
53522;BME280;39398;48.382;9.802;2023-02-17T19:53:29;94667.22;;;10.46;100.00
53522;BME280;39398;48.382;9.802;2023-02-17T19:58:30;94680.28;;;10.47;100.00
53522;BME280;39398;48.382;9.802;2023-02-17T20:03:32;94690.44;;;10.59;100.00
53522;BME280;39398;48.382;9.802;2023-02-17T20:08:35;94704.28;;;10.69;100.00
53522;BME280;39398;48.382;9.802;2023-02-17T20:13:38;94718.44;;;10.68;100.00
53522;BME280;39398;48.382;9.802;2023-02-17T20:18:48;94710.03;;;10.73;100.00
53522;BME280;39398;48.382;9.802;2023-02-17T20:23:52;94710.88;;;10.65;100.00
53522;BME280;39398;48.382;9.802;2023-02-17T20:28:54;94707.75;;;10.92;100.00
53522;BME280;39398;48.382;9.802;2023-02-17T20:33:56;94710.09;;;10.87;100.00
53522;BME280;39398;48.382;9.802;2023-02-17T20:38:58;94713.09;;;10.84;100.00
53522;BME280;39398;48.382;9.802;2023-02-17T20:44:00;94712.34;;;10.67;100.00
53522;BME280;39398;48.382;9.802;2023-02-17T20:49:02;94718.22;;;10.78;100.00
53522;BME280;39398;48.382;9.802;2023-02-17T20:54:05;94715.66;;;10.69;100.00
53522;BME280;39398;48.382;9.802;2023-02-17T20:59:08;94720.28;;;10.67;100.00
53522;BME280;39398;48.382;9.802;2023-02-17T21:04:10;94724.66;;;10.83;100.00
53522;BME280;39398;48.382;9.802;2023-02-17T21:09:14;94737.97;;;10.59;100.00
53522;BME280;39398;48.382;9.802;2023-02-17T21:14:16;94745.00;;;10.75;100.00
53522;BME280;39398;48.382;9.802;2023-02-17T21:19:18;94743.81;;;10.77;100.00
53522;BME280;39398;48.382;9.802;2023-02-17T21:24:21;94754.34;;;10.46;100.00
53522;BME280;39398;48.382;9.802;2023-02-17T21:29:23;94748.09;;;10.78;100.00
53522;BME280;39398;48.382;9.802;2023-02-17T21:34:24;94749.47;;;10.74;100.00
53522;BME280;39398;48.382;9.802;2023-02-17T21:39:27;94760.50;;;10.22;100.00
53522;BME280;39398;48.382;9.802;2023-02-17T21:44:29;94745.94;;;10.51;100.00
53522;BME280;39398;48.382;9.802;2023-02-17T21:49:30;94746.63;;;10.36;100.00
53522;BME280;39398;48.382;9.802;2023-02-17T21:54:33;94751.91;;;10.36;100.00
53522;BME280;39398;48.382;9.802;2023-02-17T21:59:35;94757.13;;;10.53;100.00
53522;BME280;39398;48.382;9.802;2023-02-17T22:04:36;94758.66;;;10.47;100.00
53522;BME280;39398;48.382;9.802;2023-02-17T22:09:39;94754.06;;;10.41;100.00
53522;BME280;39398;48.382;9.802;2023-02-17T22:14:41;94750.56;;;10.48;100.00
53522;BME280;39398;48.382;9.802;2023-02-17T22:19:42;94748.91;;;10.87;100.00
53522;BME280;39398;48.382;9.802;2023-02-17T22:24:45;94745.66;;;10.37;100.00
53522;BME280;39398;48.382;9.802;2023-02-17T22:29:47;94754.81;;;10.50;100.00
53522;BME280;39398;48.382;9.802;2023-02-17T22:34:48;94753.75;;;10.28;100.00
53522;BME280;39398;48.382;9.802;2023-02-17T22:39:52;94763.78;;;10.40;100.00
53522;BME280;39398;48.382;9.802;2023-02-17T22:44:54;94762.66;;;10.35;100.00
53522;BME280;39398;48.382;9.802;2023-02-17T22:49:55;94766.25;;;10.34;100.00
53522;BME280;39398;48.382;9.802;2023-02-17T22:54:58;94761.50;;;10.13;100.00
53522;BME280;39398;48.382;9.802;2023-02-17T23:00:00;94767.59;;;10.13;100.00
53522;BME280;39398;48.382;9.802;2023-02-17T23:05:02;94754.72;;;10.35;100.00
53522;BME280;39398;48.382;9.802;2023-02-17T23:10:06;94756.56;;;10.26;100.00
53522;BME280;39398;48.382;9.802;2023-02-17T23:15:09;94753.94;;;10.18;100.00
53522;BME280;39398;48.382;9.802;2023-02-17T23:20:11;94745.66;;;10.37;100.00
53522;BME280;39398;48.382;9.802;2023-02-17T23:25:14;94757.78;;;10.55;100.00
53522;BME280;39398;48.382;9.802;2023-02-17T23:30:18;94754.53;;;10.36;100.00
53522;BME280;39398;48.382;9.802;2023-02-17T23:35:21;94738.91;;;10.27;100.00
53522;BME280;39398;48.382;9.802;2023-02-17T23:40:24;94735.03;;;10.54;100.00
53522;BME280;39398;48.382;9.802;2023-02-17T23:45:25;94737.34;;;10.48;100.00
53522;BME280;39398;48.382;9.802;2023-02-17T23:50:27;94735.09;;;10.37;100.00
53522;BME280;39398;48.382;9.802;2023-02-17T23:55:30;94720.22;;;10.36;100.00
